N860GC KTEB-1B1

Flight info

Callsign N860GC
Flight time N/A
Altitude 3500
Route KTEB 1B1
Aircraft C208/L-V/N

Departure

Time 2026-05-06 08:49
Airport Teterboro Airport (KTEB)

Arrival

Time N/A
Airport 1B1
Time Latitude Longitude Altitude Speed Heading
2026-05-06 08:44 40.85422 -74.05506 14 ft 0 kts 258°
2026-05-06 08:45 40.85422 -74.05505 14 ft 0 kts 258°
2026-05-06 08:45 40.85414 -74.05543 14 ft 5 kts 251°
2026-05-06 08:45 40.85407 -74.05604 14 ft 6 kts 284°
2026-05-06 08:45 40.85445 -74.05641 14 ft 0 kts 336°
2026-05-06 08:46 40.85485 -74.05619 14 ft 13 kts 44°
2026-05-06 08:46 40.85566 -74.05505 14 ft 20 kts 47°
2026-05-06 08:46 40.85650 -74.05383 14 ft 16 kts 49°
2026-05-06 08:46 40.85713 -74.05356 14 ft 12 kts 316°
2026-05-06 08:47 40.85752 -74.05405 14 ft 9 kts 323°
2026-05-06 08:47 40.85814 -74.05528 14 ft 20 kts 265°
2026-05-06 08:47 40.85799 -74.05639 14 ft 13 kts 256°
2026-05-06 08:47 40.85780 -74.05767 14 ft 10 kts 263°
2026-05-06 08:48 40.85777 -74.05828 14 ft 4 kts 270°
2026-05-06 08:48 40.85769 -74.05889 11 ft 15 kts 222°
2026-05-06 08:48 40.85569 -74.05911 11 ft 54 kts 182°
2026-05-06 08:48 40.85070 -74.05921 171 ft 81 kts 190°
2026-05-06 08:49 40.84476 -74.05966 444 ft 90 kts 193°
2026-05-06 08:49 40.84078 -74.06462 702 ft 95 kts 250°
2026-05-06 08:49 40.84462 -74.07368 947 ft 143 kts 315°
2026-05-06 08:49 40.85522 -74.07648 1034 ft 178 kts
2026-05-06 08:50 40.86655 -74.06868 1063 ft 192 kts 41°
2026-05-06 08:50 40.87662 -74.05728 1206 ft 194 kts 38°
2026-05-06 08:50 40.88912 -74.05062 1185 ft 198 kts
2026-05-06 08:50 40.90240 -74.05198 1059 ft 196 kts 332°
2026-05-06 08:51 40.91568 -74.05320 1183 ft 195 kts 358°
2026-05-06 08:51 40.92852 -74.04863 1185 ft 201 kts 24°
2026-05-06 08:51 40.94085 -74.03993 1188 ft 200 kts 21°
2026-05-06 08:51 40.95354 -74.03559 1188 ft 186 kts
2026-05-06 08:52 40.96580 -74.03372 1182 ft 170 kts
2026-05-06 08:52 40.97708 -74.03159 1183 ft 165 kts
2026-05-06 08:52 40.98832 -74.02876 1188 ft 165 kts
2026-05-06 08:52 40.99935 -74.02563 1178 ft 161 kts
2026-05-06 08:53 41.01022 -74.02300 1182 ft 158 kts
2026-05-06 08:53 41.02109 -74.02044 1190 ft 158 kts
2026-05-06 08:53 41.03159 -74.01798 1183 ft 155 kts
2026-05-06 08:53 41.04214 -74.01549 1227 ft 154 kts
2026-05-06 08:54 41.05263 -74.01288 1300 ft 154 kts
2026-05-06 08:54 41.06312 -74.01041 1377 ft 154 kts
2026-05-06 08:54 41.07357 -74.00795 1439 ft 152 kts
2026-05-06 08:54 41.08387 -74.00556 1542 ft 153 kts
2026-05-06 08:55 41.09416 -74.00254 1634 ft 153 kts
2026-05-06 08:55 41.10469 -74.00010 1741 ft 156 kts
2026-05-06 08:55 41.11526 -73.99795 1861 ft 155 kts
2026-05-06 08:55 41.12595 -73.99544 1987 ft 157 kts
2026-05-06 08:56 41.13675 -73.99279 2108 ft 158 kts
2026-05-06 08:56 41.14758 -73.99019 2228 ft 157 kts
2026-05-06 08:56 41.15834 -73.98763 2346 ft 158 kts
2026-05-06 08:56 41.16918 -73.98503 2465 ft 158 kts
2026-05-06 08:57 41.18004 -73.98237 2473 ft 160 kts
2026-05-06 08:57 41.19116 -73.97973 2507 ft 166 kts
2026-05-06 08:57 41.20226 -73.97700 2626 ft 163 kts
2026-05-06 08:57 41.21328 -73.97437 2741 ft 158 kts
2026-05-06 08:58 41.22408 -73.97180 2865 ft 158 kts
2026-05-06 08:58 41.23491 -73.96917 2983 ft 156 kts
2026-05-06 08:58 41.24562 -73.96660 3095 ft 157 kts
2026-05-06 08:58 41.25625 -73.96404 3214 ft 157 kts
2026-05-06 08:59 41.26708 -73.96144 3331 ft 158 kts
2026-05-06 08:59 41.27783 -73.95884 3481 ft 157 kts
2026-05-06 08:59 41.28859 -73.95626 3597 ft 159 kts
2026-05-06 08:59 41.29930 -73.95367 3719 ft 159 kts
2026-05-06 09:00 41.31026 -73.95106 3839 ft 160 kts
2026-05-06 09:00 41.32112 -73.94841 3957 ft 158 kts
2026-05-06 09:00 41.33185 -73.94559 4079 ft 156 kts
2026-05-06 09:00 41.34255 -73.94310 4200 ft 157 kts 359°
2026-05-06 09:01 41.35336 -73.94064 4324 ft 158 kts 360°
2026-05-06 09:01 41.36418 -73.93798 4436 ft 158 kts
2026-05-06 09:01 41.37472 -73.93542 4547 ft 152 kts 359°
2026-05-06 09:01 41.38527 -73.93299 4682 ft 156 kts
2026-05-06 09:02 41.39603 -73.93032 4794 ft 159 kts
2026-05-06 09:02 41.40690 -73.92767 4914 ft 159 kts
2026-05-06 09:02 41.41775 -73.92508 5041 ft 158 kts 360°
2026-05-06 09:02 41.42858 -73.92241 5161 ft 158 kts
2026-05-06 09:03 41.43942 -73.91981 5287 ft 159 kts 360°
2026-05-06 09:03 41.45028 -73.91707 5413 ft 159 kts
2026-05-06 09:03 41.46125 -73.91450 5468 ft 164 kts 359°
2026-05-06 09:03 41.47256 -73.91186 5473 ft 170 kts
2026-05-06 09:04 41.48432 -73.90896 5471 ft 174 kts
2026-05-06 09:04 41.49619 -73.90605 5479 ft 173 kts
2026-05-06 09:04 41.50806 -73.90313 5478 ft 173 kts
2026-05-06 09:04 41.51985 -73.90012 5476 ft 173 kts 360°
2026-05-06 09:05 41.53177 -73.89746 5475 ft 175 kts 360°
2026-05-06 09:05 41.54379 -73.89459 5475 ft 176 kts
2026-05-06 09:05 41.55578 -73.89161 5474 ft 175 kts
2026-05-06 09:05 41.56761 -73.88872 5467 ft 176 kts
2026-05-06 09:06 41.57958 -73.88581 5468 ft 175 kts
2026-05-06 09:06 41.59150 -73.88292 5467 ft 174 kts
2026-05-06 09:06 41.60338 -73.88000 5469 ft 174 kts
2026-05-06 09:06 41.61527 -73.87711 5465 ft 174 kts
2026-05-06 09:07 41.62712 -73.87423 5464 ft 174 kts
2026-05-06 09:07 41.63901 -73.87133 5463 ft 174 kts
2026-05-06 09:07 41.65079 -73.86848 5467 ft 175 kts
2026-05-06 09:07 41.66283 -73.86553 5469 ft 176 kts
2026-05-06 09:08 41.67494 -73.86257 5467 ft 177 kts 360°
2026-05-06 09:08 41.68707 -73.85962 5471 ft 177 kts
2026-05-06 09:08 41.69919 -73.85665 5467 ft 177 kts
2026-05-06 09:08 41.71132 -73.85368 5465 ft 177 kts
2026-05-06 09:09 41.72343 -73.85074 5465 ft 178 kts
2026-05-06 09:09 41.73561 -73.84776 5461 ft 177 kts
2026-05-06 09:09 41.74770 -73.84480 5458 ft 176 kts
2026-05-06 09:09 41.75947 -73.84192 5458 ft 174 kts
2026-05-06 09:10 41.77137 -73.83899 5453 ft 173 kts
2026-05-06 09:10 41.78312 -73.83610 5454 ft 173 kts
2026-05-06 09:10 41.79489 -73.83322 5450 ft 171 kts 360°
2026-05-06 09:10 41.80653 -73.83042 5459 ft 170 kts
2026-05-06 09:11 41.81824 -73.82755 5455 ft 172 kts 360°
2026-05-06 09:11 41.83006 -73.82467 5453 ft 174 kts 360°
2026-05-06 09:11 41.84198 -73.82166 5444 ft 174 kts 360°
2026-05-06 09:11 41.85366 -73.81884 5448 ft 173 kts
2026-05-06 09:12 41.86550 -73.81588 5455 ft 174 kts
2026-05-06 09:12 41.87726 -73.81303 5374 ft 165 kts
2026-05-06 09:12 41.88811 -73.81021 5238 ft 155 kts 359°
2026-05-06 09:12 41.89859 -73.80767 5100 ft 151 kts 359°
2026-05-06 09:13 41.90893 -73.80517 4965 ft 151 kts 359°
2026-05-06 09:13 41.91922 -73.80266 4834 ft 150 kts 359°
2026-05-06 09:13 41.92932 -73.80018 4705 ft 149 kts 357°
2026-05-06 09:13 41.93943 -73.79764 4578 ft 146 kts 357°
2026-05-06 09:14 41.94945 -73.79521 4447 ft 146 kts 359°
2026-05-06 09:14 41.95942 -73.79279 4316 ft 146 kts 359°
2026-05-06 09:14 41.96934 -73.79036 4189 ft 148 kts 359°
2026-05-06 09:14 41.97953 -73.78785 4063 ft 150 kts
2026-05-06 09:15 41.98992 -73.78533 3882 ft 154 kts
2026-05-06 09:15 42.00056 -73.78268 3688 ft 156 kts
2026-05-06 09:15 42.01118 -73.78000 3494 ft 155 kts
2026-05-06 09:15 42.02162 -73.77744 3302 ft 154 kts
2026-05-06 09:16 42.03199 -73.77483 3101 ft 147 kts
2026-05-06 09:16 42.04207 -73.77221 2914 ft 149 kts 358°
2026-05-06 09:16 42.05243 -73.76996 2717 ft 153 kts 360°
2026-05-06 09:16 42.06292 -73.76736 2524 ft 153 kts
2026-05-06 09:17 42.07337 -73.76464 2340 ft 154 kts
2026-05-06 09:17 42.08396 -73.76202 2141 ft 155 kts
2026-05-06 09:17 42.09428 -73.75926 1944 ft 151 kts
2026-05-06 09:17 42.10421 -73.75700 1928 ft 140 kts
2026-05-06 09:18 42.11367 -73.75475 1918 ft 137 kts
2026-05-06 09:18 42.12291 -73.75243 1925 ft 134 kts 359°
2026-05-06 09:18 42.13210 -73.75022 1907 ft 132 kts
2026-05-06 09:18 42.14086 -73.74784 1913 ft 127 kts
2026-05-06 09:19 42.14949 -73.74584 1849 ft 128 kts 358°
2026-05-06 09:19 42.15863 -73.74367 1751 ft 136 kts
2026-05-06 09:19 42.16808 -73.74129 1667 ft 140 kts
2026-05-06 09:19 42.17761 -73.73883 1574 ft 137 kts
2026-05-06 09:20 42.18684 -73.73660 1484 ft 136 kts
2026-05-06 09:20 42.19605 -73.73441 1389 ft 134 kts
2026-05-06 09:20 42.20531 -73.73209 1286 ft 137 kts
2026-05-06 09:20 42.21460 -73.72988 1183 ft 135 kts
2026-05-06 09:21 42.22383 -73.72785 1108 ft 132 kts
2026-05-06 09:21 42.23274 -73.72629 1112 ft 130 kts
2026-05-06 09:21 42.24139 -73.72386 1136 ft 124 kts
2026-05-06 09:21 42.25008 -73.72374 1091 ft 134 kts 354°
2026-05-06 09:22 42.25980 -73.72258 1188 ft 139 kts
2026-05-06 09:22 42.26958 -73.72137 1177 ft 145 kts 355°
2026-05-06 09:22 42.27969 -73.72139 1069 ft 139 kts 350°
2026-05-06 09:22 42.28887 -73.72135 982 ft 130 kts 355°
2026-05-06 09:23 42.29781 -73.72024 871 ft 122 kts
2026-05-06 09:23 42.30534 -73.71768 809 ft 103 kts 21°
2026-05-06 09:23 42.30841 -73.71076 797 ft 85 kts 100°
2026-05-06 09:23 42.30425 -73.70662 576 ft 80 kts 198°
2026-05-06 09:24 42.29876 -73.70821 304 ft 80 kts 197°
2026-05-06 09:24 42.29390 -73.70957 194 ft 62 kts 198°
2026-05-06 09:24 42.29071 -73.71049 188 ft 30 kts 192°
2026-05-06 09:24 42.28917 -73.71088 199 ft 21 kts 190°
2026-05-06 09:25 42.28924 -73.71175 187 ft 17 kts 283°
2026-05-06 09:25 42.29029 -73.71214 192 ft 22 kts 11°
2026-05-06 09:25 42.29151 -73.71179 187 ft 14 kts 13°
2026-05-06 09:25 42.29268 -73.71147 187 ft 18 kts 13°
2026-05-06 09:26 42.29369 -73.71126 187 ft 11 kts 332°
2026-05-06 09:26 42.29409 -73.71160 191 ft 0 kts